sensor_id;sensor_type;location;lat;lon;timestamp;temperature;humidity
78896;HTU21D;68284;59.124;37.910;2024-02-14T00:00:49;-16.33;69.85
78896;HTU21D;68284;59.124;37.910;2024-02-14T00:03:15;-16.28;69.83
78896;HTU21D;68284;59.124;37.910;2024-02-14T00:05:41;-16.32;69.88
78896;HTU21D;68284;59.124;37.910;2024-02-14T00:08:07;-16.27;69.80
78896;HTU21D;68284;59.124;37.910;2024-02-14T00:10:34;-16.32;69.95
78896;HTU21D;68284;59.124;37.910;2024-02-14T00:13:00;-16.25;69.86
78896;HTU21D;68284;59.124;37.910;2024-02-14T00:15:26;-16.26;69.96
78896;HTU21D;68284;59.124;37.910;2024-02-14T00:17:53;-16.25;69.86
78896;HTU21D;68284;59.124;37.910;2024-02-14T00:20:19;-16.28;69.50
78896;HTU21D;68284;59.124;37.910;2024-02-14T00:22:51;-16.24;69.10
78896;HTU21D;68284;59.124;37.910;2024-02-14T00:25:18;-16.29;69.10
78896;HTU21D;68284;59.124;37.910;2024-02-14T00:27:47;-16.30;69.11
78896;HTU21D;68284;59.124;37.910;2024-02-14T00:30:14;-16.29;68.87
78896;HTU21D;68284;59.124;37.910;2024-02-14T00:33:00;-16.27;69.03
78896;HTU21D;68284;59.124;37.910;2024-02-14T00:35:27;-16.28;69.55
78896;HTU21D;68284;59.124;37.910;2024-02-14T00:37:53;-16.29;70.05
78896;HTU21D;68284;59.124;37.910;2024-02-14T00:40:21;-16.25;70.02
78896;HTU21D;68284;59.124;37.910;2024-02-14T00:42:47;-16.28;70.12
78896;HTU21D;68284;59.124;37.910;2024-02-14T00:45:13;-16.24;70.02
78896;HTU21D;68284;59.124;37.910;2024-02-14T00:47:40;-16.28;70.12
78896;HTU21D;68284;59.124;37.910;2024-02-14T00:50:07;-16.26;70.07
78896;HTU21D;68284;59.124;37.910;2024-02-14T00:52:34;-16.22;69.65
78896;HTU21D;68284;59.124;37.910;2024-02-14T00:55:00;-16.23;69.61
78896;HTU21D;68284;59.124;37.910;2024-02-14T00:57:31;-16.25;69.56
78896;HTU21D;68284;59.124;37.910;2024-02-14T00:59:58;-16.28;69.67
78896;HTU21D;68284;59.124;37.910;2024-02-14T01:02:26;-16.24;69.61
78896;HTU21D;68284;59.124;37.910;2024-02-14T01:04:53;-16.28;69.66
78896;HTU21D;68284;59.124;37.910;2024-02-14T01:07:19;-16.25;69.67
78896;HTU21D;68284;59.124;37.910;2024-02-14T01:09:46;-16.25;69.74
78896;HTU21D;68284;59.124;37.910;2024-02-14T01:12:13;-16.27;70.13
78896;HTU21D;68284;59.124;37.910;2024-02-14T01:14:39;-16.25;70.07
78896;HTU21D;68284;59.124;37.910;2024-02-14T01:17:06;-16.23;69.64
78896;HTU21D;68284;59.124;37.910;2024-02-14T01:19:32;-16.24;69.67
78896;HTU21D;68284;59.124;37.910;2024-02-14T01:21:59;-16.28;69.61
78896;HTU21D;68284;59.124;37.910;2024-02-14T01:24:26;-16.27;69.29
78896;HTU21D;68284;59.124;37.910;2024-02-14T01:26:56;-16.32;69.28
78896;HTU21D;68284;59.124;37.910;2024-02-14T01:29:23;-16.27;69.24
78896;HTU21D;68284;59.124;37.910;2024-02-14T01:31:49;-16.34;69.26
78896;HTU21D;68284;59.124;37.910;2024-02-14T01:34:16;-16.32;69.21
78896;HTU21D;68284;59.124;37.910;2024-02-14T01:36:42;-16.34;69.31
78896;HTU21D;68284;59.124;37.910;2024-02-14T01:39:09;-16.39;69.68
78896;HTU21D;68284;59.124;37.910;2024-02-14T01:41:38;-16.37;69.68
78896;HTU21D;68284;59.124;37.910;2024-02-14T01:44:04;-16.38;69.78
78896;HTU21D;68284;59.124;37.910;2024-02-14T01:46:31;-16.39;70.10
78896;HTU21D;68284;59.124;37.910;2024-02-14T01:48:58;-16.44;70.35
78896;HTU21D;68284;59.124;37.910;2024-02-14T01:51:24;-16.41;70.20
78896;HTU21D;68284;59.124;37.910;2024-02-14T01:53:53;-16.46;69.81
78896;HTU21D;68284;59.124;37.910;2024-02-14T01:56:20;-16.53;69.69
78896;HTU21D;68284;59.124;37.910;2024-02-14T01:58:46;-16.54;69.56
78896;HTU21D;68284;59.124;37.910;2024-02-14T02:01:13;-16.58;69.60
78896;HTU21D;68284;59.124;37.910;2024-02-14T02:03:40;-16.66;69.94
78896;HTU21D;68284;59.124;37.910;2024-02-14T02:06:06;-16.65;69.84
78896;HTU21D;68284;59.124;37.910;2024-02-14T02:08:33;-16.69;69.78
78896;HTU21D;68284;59.124;37.910;2024-02-14T02:11:00;-16.77;70.07
78896;HTU21D;68284;59.124;37.910;2024-02-14T02:13:46;-16.78;69.83
78896;HTU21D;68284;59.124;37.910;2024-02-14T02:16:32;-16.87;69.83
78896;HTU21D;68284;59.124;37.910;2024-02-14T02:19:29;-16.89;69.58
78896;HTU21D;68284;59.124;37.910;2024-02-14T02:22:16;-16.99;69.58
78896;HTU21D;68284;59.124;37.910;2024-02-14T02:25:02;-17.00;69.53
78896;HTU21D;68284;59.124;37.910;2024-02-14T02:27:32;-17.03;69.13
78896;HTU21D;68284;59.124;37.910;2024-02-14T02:30:18;-17.11;69.10
78896;HTU21D;68284;59.124;37.910;2024-02-14T02:32:45;-17.15;69.06
78896;HTU21D;68284;59.124;37.910;2024-02-14T02:35:11;-17.15;68.71
78896;HTU21D;68284;59.124;37.910;2024-02-14T02:37:57;-17.27;68.77
78896;HTU21D;68284;59.124;37.910;2024-02-14T02:40:44;-17.26;68.80
78896;HTU21D;68284;59.124;37.910;2024-02-14T02:43:30;-17.32;68.86
78896;HTU21D;68284;59.124;37.910;2024-02-14T02:46:17;-17.40;69.39
78896;HTU21D;68284;59.124;37.910;2024-02-14T02:49:05;-17.37;69.42
78896;HTU21D;68284;59.124;37.910;2024-02-14T02:51:32;-17.40;69.40
78896;HTU21D;68284;59.124;37.910;2024-02-14T02:54:20;-17.43;69.81
78896;HTU21D;68284;59.124;37.910;2024-02-14T02:57:08;-17.41;69.69
78896;HTU21D;68284;59.124;37.910;2024-02-14T02:59:35;-17.41;69.25
78896;HTU21D;68284;59.124;37.910;2024-02-14T03:02:02;-17.45;69.20
78896;HTU21D;68284;59.124;37.910;2024-02-14T03:04:49;-17.44;69.61
78896;HTU21D;68284;59.124;37.910;2024-02-14T03:07:36;-17.41;69.58
78896;HTU21D;68284;59.124;37.910;2024-02-14T03:10:22;-17.40;69.46
78896;HTU21D;68284;59.124;37.910;2024-02-14T03:13:10;-17.39;69.32
78896;HTU21D;68284;59.124;37.910;2024-02-14T03:15:57;-17.42;69.36
78896;HTU21D;68284;59.124;37.910;2024-02-14T03:18:25;-17.37;69.29
78896;HTU21D;68284;59.124;37.910;2024-02-14T03:20:51;-17.38;69.29
78896;HTU21D;68284;59.124;37.910;2024-02-14T03:23:19;-17.32;69.18
78896;HTU21D;68284;59.124;37.910;2024-02-14T03:25:46;-17.35;68.80
78896;HTU21D;68284;59.124;37.910;2024-02-14T03:28:12;-17.35;68.76
78896;HTU21D;68284;59.124;37.910;2024-02-14T03:30:39;-17.36;69.02
78896;HTU21D;68284;59.124;37.910;2024-02-14T03:33:06;-17.37;69.41
78896;HTU21D;68284;59.124;37.910;2024-02-14T03:35:34;-17.36;69.44
78896;HTU21D;68284;59.124;37.910;2024-02-14T03:38:01;-17.39;69.45
78896;HTU21D;68284;59.124;37.910;2024-02-14T03:40:32;-17.35;69.36
78896;HTU21D;68284;59.124;37.910;2024-02-14T03:43:01;-17.39;69.43
78896;HTU21D;68284;59.124;37.910;2024-02-14T03:45:28;-17.33;69.36
78896;HTU21D;68284;59.124;37.910;2024-02-14T03:47:56;-17.38;69.39
78896;HTU21D;68284;59.124;37.910;2024-02-14T03:50:22;-17.38;69.29
78896;HTU21D;68284;59.124;37.910;2024-02-14T03:52:49;-17.40;68.97
78896;HTU21D;68284;59.124;37.910;2024-02-14T03:55:15;-17.43;68.64
78896;HTU21D;68284;59.124;37.910;2024-02-14T03:57:44;-17.41;68.26
78896;HTU21D;68284;59.124;37.910;2024-02-14T04:00:12;-17.47;68.33
78896;HTU21D;68284;59.124;37.910;2024-02-14T04:02:39;-17.45;68.34
78896;HTU21D;68284;59.124;37.910;2024-02-14T04:05:06;-17.50;68.50
78896;HTU21D;68284;59.124;37.910;2024-02-14T04:07:33;-17.45;68.57
78896;HTU21D;68284;59.124;37.910;2024-02-14T04:10:00;-17.45;68.65
78896;HTU21D;68284;59.124;37.910;2024-02-14T04:12:26;-17.45;68.69
78896;HTU21D;68284;59.124;37.910;2024-02-14T04:14:52;-17.48;68.82
78896;HTU21D;68284;59.124;37.910;2024-02-14T04:17:18;-17.44;68.80
78896;HTU21D;68284;59.124;37.910;2024-02-14T04:19:45;-17.48;68.96
78896;HTU21D;68284;59.124;37.910;2024-02-14T04:22:11;-17.44;68.98
78896;HTU21D;68284;59.124;37.910;2024-02-14T04:24:37;-17.46;69.04
78896;HTU21D;68284;59.124;37.910;2024-02-14T04:27:04;-17.40;69.03
78896;HTU21D;68284;59.124;37.910;2024-02-14T04:29:30;-17.44;69.06
78896;HTU21D;68284;59.124;37.910;2024-02-14T04:31:59;-17.38;69.01
78896;HTU21D;68284;59.124;37.910;2024-02-14T04:34:26;-17.42;69.08
78896;HTU21D;68284;59.124;37.910;2024-02-14T04:36:52;-17.38;69.02
78896;HTU21D;68284;59.124;37.910;2024-02-14T04:39:19;-17.41;69.11
78896;HTU21D;68284;59.124;37.910;2024-02-14T04:41:45;-17.38;69.05
78896;HTU21D;68284;59.124;37.910;2024-02-14T04:44:12;-17.39;69.12
78896;HTU21D;68284;59.124;37.910;2024-02-14T04:46:38;-17.36;69.02
78896;HTU21D;68284;59.124;37.910;2024-02-14T04:49:10;-17.37;69.08
78896;HTU21D;68284;59.124;37.910;2024-02-14T04:51:36;-17.33;68.99
78896;HTU21D;68284;59.124;37.910;2024-02-14T04:54:02;-17.37;69.04
78896;HTU21D;68284;59.124;37.910;2024-02-14T04:56:29;-17.35;68.98
78896;HTU21D;68284;59.124;37.910;2024-02-14T04:58:55;-17.40;69.00
78896;HTU21D;68284;59.124;37.910;2024-02-14T05:01:22;-17.40;68.80
78896;HTU21D;68284;59.124;37.910;2024-02-14T05:03:48;-17.44;68.83
78896;HTU21D;68284;59.124;37.910;2024-02-14T05:06:16;-17.51;68.78
78896;HTU21D;68284;59.124;37.910;2024-02-14T05:08:42;-17.59;68.89
78896;HTU21D;68284;59.124;37.910;2024-02-14T05:11:08;-17.60;68.82
78896;HTU21D;68284;59.124;37.910;2024-02-14T05:13:35;-17.69;68.83
78896;HTU21D;68284;59.124;37.910;2024-02-14T05:16:03;-17.68;68.81
78896;HTU21D;68284;59.124;37.910;2024-02-14T05:18:30;-17.75;68.84
78896;HTU21D;68284;59.124;37.910;2024-02-14T05:20:56;-17.72;68.73
78896;HTU21D;68284;59.124;37.910;2024-02-14T05:23:24;-17.80;68.75
78896;HTU21D;68284;59.124;37.910;2024-02-14T05:25:50;-17.83;68.66
78896;HTU21D;68284;59.124;37.910;2024-02-14T05:28:17;-17.83;68.29
78896;HTU21D;68284;59.124;37.910;2024-02-14T05:30:44;-17.91;68.31
78896;HTU21D;68284;59.124;37.910;2024-02-14T05:33:20;-17.91;68.20
78896;HTU21D;68284;59.124;37.910;2024-02-14T05:35:49;-18.00;68.20
78896;HTU21D;68284;59.124;37.910;2024-02-14T05:38:15;-18.02;68.13
78896;HTU21D;68284;59.124;37.910;2024-02-14T05:40:42;-18.03;67.90
78896;HTU21D;68284;59.124;37.910;2024-02-14T05:43:10;-18.10;68.00
78896;HTU21D;68284;59.124;37.910;2024-02-14T05:45:38;-18.06;67.97
78896;HTU21D;68284;59.124;37.910;2024-02-14T05:48:04;-18.11;68.00
78896;HTU21D;68284;59.124;37.910;2024-02-14T05:50:31;-18.09;67.95
78896;HTU21D;68284;59.124;37.910;2024-02-14T05:52:58;-18.10;68.18
78896;HTU21D;68284;59.124;37.910;2024-02-14T05:55:25;-18.02;68.20
78896;HTU21D;68284;59.124;37.910;2024-02-14T05:57:52;-17.97;68.26
78896;HTU21D;68284;59.124;37.910;2024-02-14T06:00:20;-17.95;68.29
78896;HTU21D;68284;59.124;37.910;2024-02-14T06:02:47;-17.80;67.99
78896;HTU21D;68284;59.124;37.910;2024-02-14T06:05:14;-17.74;67.88
78896;HTU21D;68284;59.124;37.910;2024-02-14T06:07:40;-17.62;67.75
78896;HTU21D;68284;59.124;37.910;2024-02-14T06:10:08;-17.58;67.78
78896;HTU21D;68284;59.124;37.910;2024-02-14T06:12:34;-17.44;67.78
78896;HTU21D;68284;59.124;37.910;2024-02-14T06:15:01;-17.36;67.84
78896;HTU21D;68284;59.124;37.910;2024-02-14T06:17:28;-17.21;67.73
78896;HTU21D;68284;59.124;37.910;2024-02-14T06:19:54;-17.11;67.72
78896;HTU21D;68284;59.124;37.910;2024-02-14T06:22:21;-17.00;67.63
78896;HTU21D;68284;59.124;37.910;2024-02-14T06:24:47;-16.84;67.31
78896;HTU21D;68284;59.124;37.910;2024-02-14T06:27:16;-16.78;67.27
78896;HTU21D;68284;59.124;37.910;2024-02-14T06:29:43;-16.63;67.21
78896;HTU21D;68284;59.124;37.910;2024-02-14T06:32:12;-16.56;67.20
78896;HTU21D;68284;59.124;37.910;2024-02-14T06:34:39;-16.46;67.05
78896;HTU21D;68284;59.124;37.910;2024-02-14T06:37:05;-16.35;66.69
78896;HTU21D;68284;59.124;37.910;2024-02-14T06:39:32;-16.29;66.69
78896;HTU21D;68284;59.124;37.910;2024-02-14T06:41:58;-16.20;66.47
78896;HTU21D;68284;59.124;37.910;2024-02-14T06:44:24;-16.20;66.62
78896;HTU21D;68284;59.124;37.910;2024-02-14T06:46:51;-16.10;66.61
78896;HTU21D;68284;59.124;37.910;2024-02-14T06:49:17;-16.04;66.29
78896;HTU21D;68284;59.124;37.910;2024-02-14T06:51:43;-15.94;66.03
78896;HTU21D;68284;59.124;37.910;2024-02-14T06:54:11;-15.89;66.06
78896;HTU21D;68284;59.124;37.910;2024-02-14T06:56:40;-15.87;66.24
78896;HTU21D;68284;59.124;37.910;2024-02-14T06:59:06;-15.80;66.28
78896;HTU21D;68284;59.124;37.910;2024-02-14T07:01:32;-15.74;66.09
78896;HTU21D;68284;59.124;37.910;2024-02-14T07:03:59;-15.70;65.75
78896;HTU21D;68284;59.124;37.910;2024-02-14T07:06:25;-15.61;65.43
78896;HTU21D;68284;59.124;37.910;2024-02-14T07:08:51;-15.61;65.56
78896;HTU21D;68284;59.124;37.910;2024-02-14T07:11:17;-15.55;65.56
78896;HTU21D;68284;59.124;37.910;2024-02-14T07:13:44;-15.53;65.43
78896;HTU21D;68284;59.124;37.910;2024-02-14T07:16:10;-15.44;65.31
78896;HTU21D;68284;59.124;37.910;2024-02-14T07:18:37;-15.40;65.38
78896;HTU21D;68284;59.124;37.910;2024-02-14T07:21:03;-15.31;65.37
78896;HTU21D;68284;59.124;37.910;2024-02-14T07:23:32;-15.24;65.28
78896;HTU21D;68284;59.124;37.910;2024-02-14T07:26:00;-15.11;65.05
78896;HTU21D;68284;59.124;37.910;2024-02-14T07:28:27;-15.05;65.11
78896;HTU21D;68284;59.124;37.910;2024-02-14T07:30:54;-15.00;65.17
78896;HTU21D;68284;59.124;37.910;2024-02-14T07:33:20;-14.92;65.07
78896;HTU21D;68284;59.124;37.910;2024-02-14T07:35:47;-14.84;64.79
78896;HTU21D;68284;59.124;37.910;2024-02-14T07:38:13;-14.72;64.57
78896;HTU21D;68284;59.124;37.910;2024-02-14T07:40:40;-14.70;64.54
78896;HTU21D;68284;59.124;37.910;2024-02-14T07:43:15;-14.62;64.62
78896;HTU21D;68284;59.124;37.910;2024-02-14T07:45:41;-14.55;64.53
78896;HTU21D;68284;59.124;37.910;2024-02-14T07:48:08;-14.51;64.67
78896;HTU21D;68284;59.124;37.910;2024-02-14T07:50:34;-14.45;64.75
78896;HTU21D;68284;59.124;37.910;2024-02-14T07:53:01;-14.39;64.64
78896;HTU21D;68284;59.124;37.910;2024-02-14T07:55:28;-14.27;64.43
78896;HTU21D;68284;59.124;37.910;2024-02-14T07:57:54;-14.21;64.54
78896;HTU21D;68284;59.124;37.910;2024-02-14T08:00:20;-14.13;64.59
78896;HTU21D;68284;59.124;37.910;2024-02-14T08:02:49;-13.99;64.40
78896;HTU21D;68284;59.124;37.910;2024-02-14T08:05:15;-13.88;64.15
78896;HTU21D;68284;59.124;37.910;2024-02-14T08:07:42;-13.84;64.11
78896;HTU21D;68284;59.124;37.910;2024-02-14T08:10:08;-13.73;64.14
78896;HTU21D;68284;59.124;37.910;2024-02-14T08:12:35;-13.65;64.00
78896;HTU21D;68284;59.124;37.910;2024-02-14T08:15:01;-13.57;63.76
78896;HTU21D;68284;59.124;37.910;2024-02-14T08:17:30;-13.48;63.60
78896;HTU21D;68284;59.124;37.910;2024-02-14T08:19:57;-13.43;63.79
78896;HTU21D;68284;59.124;37.910;2024-02-14T08:22:23;-13.31;63.85
78896;HTU21D;68284;59.124;37.910;2024-02-14T08:24:49;-13.21;63.68
78896;HTU21D;68284;59.124;37.910;2024-02-14T08:27:15;-13.10;63.47
78896;HTU21D;68284;59.124;37.910;2024-02-14T08:29:42;-13.00;63.21
78896;HTU21D;68284;59.124;37.910;2024-02-14T08:32:08;-12.86;62.98
78896;HTU21D;68284;59.124;37.910;2024-02-14T08:34:34;-12.83;63.04
78896;HTU21D;68284;59.124;37.910;2024-02-14T08:37:00;-12.69;63.09
78896;HTU21D;68284;59.124;37.910;2024-02-14T08:39:27;-12.64;63.15
78896;HTU21D;68284;59.124;37.910;2024-02-14T08:41:53;-12.55;63.15
78896;HTU21D;68284;59.124;37.910;2024-02-14T08:44:20;-12.47;63.07
78896;HTU21D;68284;59.124;37.910;2024-02-14T08:46:47;-12.38;62.87
78896;HTU21D;68284;59.124;37.910;2024-02-14T08:49:15;-12.32;62.69
78896;HTU21D;68284;59.124;37.910;2024-02-14T08:51:41;-12.23;62.56
78896;HTU21D;68284;59.124;37.910;2024-02-14T08:54:09;-12.14;62.33
78896;HTU21D;68284;59.124;37.910;2024-02-14T08:56:36;-12.05;62.05
78896;HTU21D;68284;59.124;37.910;2024-02-14T08:59:03;-11.97;62.01
78896;HTU21D;68284;59.124;37.910;2024-02-14T09:01:30;-11.91;61.86
78896;HTU21D;68284;59.124;37.910;2024-02-14T09:03:58;-11.86;61.79
78896;HTU21D;68284;59.124;37.910;2024-02-14T09:06:25;-11.79;61.69
78896;HTU21D;68284;59.124;37.910;2024-02-14T09:08:55;-11.70;61.57
78896;HTU21D;68284;59.124;37.910;2024-02-14T09:11:21;-11.64;61.49
78896;HTU21D;68284;59.124;37.910;2024-02-14T09:13:48;-11.54;61.40
78896;HTU21D;68284;59.124;37.910;2024-02-14T09:16:17;-11.47;61.15
78896;HTU21D;68284;59.124;37.910;2024-02-14T09:18:45;-11.42;61.11
78896;HTU21D;68284;59.124;37.910;2024-02-14T09:21:11;-11.39;61.08
78896;HTU21D;68284;59.124;37.910;2024-02-14T09:23:38;-11.37;61.05
78896;HTU21D;68284;59.124;37.910;2024-02-14T09:26:07;-11.32;61.13
78896;HTU21D;68284;59.124;37.910;2024-02-14T09:28:34;-11.25;61.10
78896;HTU21D;68284;59.124;37.910;2024-02-14T09:31:01;-11.21;61.02
78896;HTU21D;68284;59.124;37.910;2024-02-14T09:33:30;-11.19;61.00
78896;HTU21D;68284;59.124;37.910;2024-02-14T09:35:56;-11.17;61.14
78896;HTU21D;68284;59.124;37.910;2024-02-14T09:38:22;-11.14;61.20
78896;HTU21D;68284;59.124;37.910;2024-02-14T09:40:53;-11.08;61.21
78896;HTU21D;68284;59.124;37.910;2024-02-14T09:43:34;-10.97;61.24
78896;HTU21D;68284;59.124;37.910;2024-02-14T09:46:01;-10.88;61.11
78896;HTU21D;68284;59.124;37.910;2024-02-14T09:48:30;-10.80;61.02
78896;HTU21D;68284;59.124;37.910;2024-02-14T09:50:57;-10.74;61.03
78896;HTU21D;68284;59.124;37.910;2024-02-14T09:53:23;-10.67;60.97
78896;HTU21D;68284;59.124;37.910;2024-02-14T09:55:50;-10.58;60.97
78896;HTU21D;68284;59.124;37.910;2024-02-14T09:58:17;-10.47;60.91
78896;HTU21D;68284;59.124;37.910;2024-02-14T10:00:43;-10.38;60.78
78896;HTU21D;68284;59.124;37.910;2024-02-14T10:03:10;-10.33;60.78
78896;HTU21D;68284;59.124;37.910;2024-02-14T10:05:37;-10.26;60.70
78896;HTU21D;68284;59.124;37.910;2024-02-14T10:08:03;-10.19;60.76
78896;HTU21D;68284;59.124;37.910;2024-02-14T10:10:32;-10.15;60.77
78896;HTU21D;68284;59.124;37.910;2024-02-14T10:13:04;-10.07;60.81
78896;HTU21D;68284;59.124;37.910;2024-02-14T10:15:31;-10.02;60.71
78896;HTU21D;68284;59.124;37.910;2024-02-14T10:17:58;-9.98;60.69
78896;HTU21D;68284;59.124;37.910;2024-02-14T10:20:25;-9.91;60.76
78896;HTU21D;68284;59.124;37.910;2024-02-14T10:23:03;-9.82;60.71
78896;HTU21D;68284;59.124;37.910;2024-02-14T10:25:30;-9.75;60.67
78896;HTU21D;68284;59.124;37.910;2024-02-14T10:27:57;-9.68;60.62
78896;HTU21D;68284;59.124;37.910;2024-02-14T10:30:29;-9.61;60.51
78896;HTU21D;68284;59.124;37.910;2024-02-14T10:32:58;-9.58;60.47
78896;HTU21D;68284;59.124;37.910;2024-02-14T10:35:25;-9.57;60.55
78896;HTU21D;68284;59.124;37.910;2024-02-14T10:37:53;-9.53;60.55
78896;HTU21D;68284;59.124;37.910;2024-02-14T10:40:32;-9.45;60.60
78896;HTU21D;68284;59.124;37.910;2024-02-14T10:42:59;-9.32;60.60
78896;HTU21D;68284;59.124;37.910;2024-02-14T10:45:25;-9.16;60.45
78896;HTU21D;68284;59.124;37.910;2024-02-14T10:47:53;-9.01;60.29
78896;HTU21D;68284;59.124;37.910;2024-02-14T10:50:24;-8.90;60.07
78896;HTU21D;68284;59.124;37.910;2024-02-14T10:52:53;-8.80;59.98
78896;HTU21D;68284;59.124;37.910;2024-02-14T10:55:24;-8.71;60.02
78896;HTU21D;68284;59.124;37.910;2024-02-14T10:57:53;-8.55;60.02
78896;HTU21D;68284;59.124;37.910;2024-02-14T11:00:20;-8.34;59.96
78896;HTU21D;68284;59.124;37.910;2024-02-14T11:02:48;-7.96;60.06
78896;HTU21D;68284;59.124;37.910;2024-02-14T11:05:16;-7.55;60.27
78896;HTU21D;68284;59.124;37.910;2024-02-14T11:07:45;-7.08;60.52
78896;HTU21D;68284;59.124;37.910;2024-02-14T11:10:14;-6.62;60.64
78896;HTU21D;68284;59.124;37.910;2024-02-14T11:12:41;-6.18;60.66
78896;HTU21D;68284;59.124;37.910;2024-02-14T11:15:34;-5.76;60.72
78896;HTU21D;68284;59.124;37.910;2024-02-14T11:18:05;-5.26;60.77
78896;HTU21D;68284;59.124;37.910;2024-02-14T11:20:36;-4.87;60.65
78896;HTU21D;68284;59.124;37.910;2024-02-14T11:23:04;-4.51;60.29
78896;HTU21D;68284;59.124;37.910;2024-02-14T11:25:33;-4.21;60.44
78896;HTU21D;68284;59.124;37.910;2024-02-14T11:28:15;-3.87;60.54
78896;HTU21D;68284;59.124;37.910;2024-02-14T11:30:42;-3.55;60.48
78896;HTU21D;68284;59.124;37.910;2024-02-14T11:33:20;-3.23;60.38
78896;HTU21D;68284;59.124;37.910;2024-02-14T11:35:47;-2.89;60.33
78896;HTU21D;68284;59.124;37.910;2024-02-14T11:38:16;-2.58;60.02
78896;HTU21D;68284;59.124;37.910;2024-02-14T11:40:43;-2.35;59.52
78896;HTU21D;68284;59.124;37.910;2024-02-14T11:43:11;-2.15;59.51
78896;HTU21D;68284;59.124;37.910;2024-02-14T11:45:38;-1.90;59.39
78896;HTU21D;68284;59.124;37.910;2024-02-14T11:48:17;-1.62;58.72
78896;HTU21D;68284;59.124;37.910;2024-02-14T11:50:45;-1.49;58.51
78896;HTU21D;68284;59.124;37.910;2024-02-14T11:53:15;-1.31;58.51
78896;HTU21D;68284;59.124;37.910;2024-02-14T11:55:45;-1.03;58.29
78896;HTU21D;68284;59.124;37.910;2024-02-14T11:58:17;-0.75;57.90
78896;HTU21D;68284;59.124;37.910;2024-02-14T12:00:44;-0.53;56.93
78896;HTU21D;68284;59.124;37.910;2024-02-14T12:03:15;-0.51;56.36
78896;HTU21D;68284;59.124;37.910;2024-02-14T12:05:41;-0.39;56.54
78896;HTU21D;68284;59.124;37.910;2024-02-14T12:08:10;-0.15;55.91
78896;HTU21D;68284;59.124;37.910;2024-02-14T12:10:36;0.04;55.49
78896;HTU21D;68284;59.124;37.910;2024-02-14T12:13:12;0.28;55.72
78896;HTU21D;68284;59.124;37.910;2024-02-14T12:15:43;0.47;55.08
78896;HTU21D;68284;59.124;37.910;2024-02-14T12:18:10;0.64;54.79
78896;HTU21D;68284;59.124;37.910;2024-02-14T12:20:37;0.74;53.78
78896;HTU21D;68284;59.124;37.910;2024-02-14T12:23:04;0.86;54.39
78896;HTU21D;68284;59.124;37.910;2024-02-14T12:25:34;0.98;53.71
78896;HTU21D;68284;59.124;37.910;2024-02-14T12:28:01;1.14;53.45
78896;HTU21D;68284;59.124;37.910;2024-02-14T12:30:49;1.29;52.58
78896;HTU21D;68284;59.124;37.910;2024-02-14T12:33:16;1.35;52.45
78896;HTU21D;68284;59.124;37.910;2024-02-14T12:35:45;1.47;52.13
78896;HTU21D;68284;59.124;37.910;2024-02-14T12:38:12;1.66;51.73
78896;HTU21D;68284;59.124;37.910;2024-02-14T12:40:40;1.91;51.15
78896;HTU21D;68284;59.124;37.910;2024-02-14T12:43:15;2.10;50.74
78896;HTU21D;68284;59.124;37.910;2024-02-14T12:45:42;2.14;50.27
78896;HTU21D;68284;59.124;37.910;2024-02-14T12:48:10;2.07;50.08
78896;HTU21D;68284;59.124;37.910;2024-02-14T12:50:38;2.00;49.82
78896;HTU21D;68284;59.124;37.910;2024-02-14T12:53:05;1.94;49.47
78896;HTU21D;68284;59.124;37.910;2024-02-14T12:55:31;1.75;48.94
78896;HTU21D;68284;59.124;37.910;2024-02-14T12:57:58;1.50;49.11
78896;HTU21D;68284;59.124;37.910;2024-02-14T13:00:25;1.35;49.03
78896;HTU21D;68284;59.124;37.910;2024-02-14T13:02:52;1.25;48.82
78896;HTU21D;68284;59.124;37.910;2024-02-14T13:05:19;1.13;48.46
78896;HTU21D;68284;59.124;37.910;2024-02-14T13:07:46;1.06;48.37
78896;HTU21D;68284;59.124;37.910;2024-02-14T13:10:13;0.99;48.18
78896;HTU21D;68284;59.124;37.910;2024-02-14T13:12:39;0.90;48.05
78896;HTU21D;68284;59.124;37.910;2024-02-14T13:15:07;0.75;47.76
78896;HTU21D;68284;59.124;37.910;2024-02-14T13:17:33;0.52;47.72
78896;HTU21D;68284;59.124;37.910;2024-02-14T13:20:00;0.24;47.28
78896;HTU21D;68284;59.124;37.910;2024-02-14T13:22:27;-0.13;48.02
78896;HTU21D;68284;59.124;37.910;2024-02-14T13:24:53;-0.47;47.73
78896;HTU21D;68284;59.124;37.910;2024-02-14T13:27:19;-0.83;47.69
78896;HTU21D;68284;59.124;37.910;2024-02-14T13:29:47;-1.21;47.71
78896;HTU21D;68284;59.124;37.910;2024-02-14T13:32:13;-1.65;47.67
78896;HTU21D;68284;59.124;37.910;2024-02-14T13:34:40;-2.05;47.72
78896;HTU21D;68284;59.124;37.910;2024-02-14T13:37:06;-2.41;47.81
78896;HTU21D;68284;59.124;37.910;2024-02-14T13:39:35;-2.68;47.83
78896;HTU21D;68284;59.124;37.910;2024-02-14T13:42:02;-3.04;47.92
78896;HTU21D;68284;59.124;37.910;2024-02-14T13:44:28;-3.45;48.04
78896;HTU21D;68284;59.124;37.910;2024-02-14T13:46:55;-3.95;48.08
78896;HTU21D;68284;59.124;37.910;2024-02-14T13:49:21;-4.57;48.48
78896;HTU21D;68284;59.124;37.910;2024-02-14T13:51:49;-5.18;48.84
78896;HTU21D;68284;59.124;37.910;2024-02-14T13:54:20;-5.79;49.14
78896;HTU21D;68284;59.124;37.910;2024-02-14T13:56:48;-6.39;49.38
78896;HTU21D;68284;59.124;37.910;2024-02-14T13:59:15;-6.91;49.56
78896;HTU21D;68284;59.124;37.910;2024-02-14T14:01:42;-7.38;49.70
78896;HTU21D;68284;59.124;37.910;2024-02-14T14:04:08;-7.82;49.79
78896;HTU21D;68284;59.124;37.910;2024-02-14T14:06:35;-8.24;49.89
78896;HTU21D;68284;59.124;37.910;2024-02-14T14:09:01;-8.63;49.98
78896;HTU21D;68284;59.124;37.910;2024-02-14T14:11:31;-8.97;50.06
78896;HTU21D;68284;59.124;37.910;2024-02-14T14:13:58;-9.30;50.19
78896;HTU21D;68284;59.124;37.910;2024-02-14T14:16:26;-9.58;50.21
78896;HTU21D;68284;59.124;37.910;2024-02-14T14:18:52;-9.84;50.22
78896;HTU21D;68284;59.124;37.910;2024-02-14T14:21:18;-10.07;50.18
78896;HTU21D;68284;59.124;37.910;2024-02-14T14:23:44;-10.27;50.16
78896;HTU21D;68284;59.124;37.910;2024-02-14T14:26:11;-10.46;50.22
78896;HTU21D;68284;59.124;37.910;2024-02-14T14:28:39;-10.64;50.28
78896;HTU21D;68284;59.124;37.910;2024-02-14T14:31:05;-10.76;50.30
78896;HTU21D;68284;59.124;37.910;2024-02-14T14:33:31;-10.96;50.38
78896;HTU21D;68284;59.124;37.910;2024-02-14T14:35:58;-11.09;50.49
78896;HTU21D;68284;59.124;37.910;2024-02-14T14:38:24;-11.24;51.33
78896;HTU21D;68284;59.124;37.910;2024-02-14T14:40:52;-11.35;51.66
78896;HTU21D;68284;59.124;37.910;2024-02-14T14:43:21;-11.48;51.68
78896;HTU21D;68284;59.124;37.910;2024-02-14T14:45:48;-11.55;51.82
78896;HTU21D;68284;59.124;37.910;2024-02-14T14:48:15;-11.73;51.65
78896;HTU21D;68284;59.124;37.910;2024-02-14T14:50:43;-11.83;51.67
78896;HTU21D;68284;59.124;37.910;2024-02-14T14:53:09;-11.93;51.66
78896;HTU21D;68284;59.124;37.910;2024-02-14T14:55:56;-12.00;51.73
78896;HTU21D;68284;59.124;37.910;2024-02-14T14:58:23;-12.12;52.98
78896;HTU21D;68284;59.124;37.910;2024-02-14T15:00:53;-12.18;53.34